Air Resources Laboratory banner image
Air Resources Laboratory web site National Oceanic and Atmospheric Administration (NOAA)

mt metar


KBHK 171051Z AUTO 11003KT 10SM CLR M08/M09 A3000 RMK AO2 SLP192 I1000 T10781089=
KBIL 171053Z 23011KT 1/2SM R10L/1800V2800FT FZFG OVC001 M04/M04 A2995 RMK AO2
 SLP180 FG OVC001 T10441044 $=
KBTM 171053Z AUTO VRB03KT 1/2SM FZFG VV002 M16/M18 A3004 RMK AO2 SLP246
 T11611178=
KBZN 171056Z AUTO 22005KT 3/4SM BR OVC001 M16/M17 A3005 RMK AO2 SLP243 I1001
 T11561172 $=
KCTB 171056Z AUTO 25027G37KT 5SM HZ CLR M03/M08 A2975 RMK AO2 PK WND 25037/1047
 SLP112 T10331078=
KDLN 171053Z AUTO 20010KT 10SM CLR M09/M14 A3005 RMK AO2 SLP230 T10941144=
KGDV 171056Z AUTO 18005KT 10SM CLR M08/M09 A2999 RMK AO2 SLP189 T10781094
 FZRANO=
KGFA 171058Z AUTO 22015KT 10SM CLR M05/M09 A2986 RMK AO2 SLP156 T10481095 $=
KGGW 171053Z AUTO 11011KT 10SM CLR M08/M09 A2991 RMK AO2 SLP163 T10831094 TSNO=
KGTF 171053Z 22019G29KT 10SM CLR M04/M11 A2985 RMK AO2 PK WND 22030/1039 SLP153
 T10391111=
KHLN 171053Z AUTO VRB03KT 10SM CLR M05/M12 A3002 RMK AO2 SLP220 T10501117=
KHVR 171053Z AUTO 23012KT 10SM CLR M06/M09 A2984 RMK AO2 SLP137 T10611089=
KJDN 171048Z AUTO 00000KT M07/M10 A2993 RMK AO1 SLP170 T10721100=
KLVM 171053Z AUTO 29016G23KT 10SM CLR M08/M10 A2996 RMK AO2 SLP196 I1000
 T10781100 $=
KLWT 171054Z AUTO 23011KT 10SM CLR M06/M11 A2985 RMK AO2 SLP143 T10561111=
KMLS 171053Z AUTO 15006KT 10SM CLR M08/M08 A2999 RMK AO2 SLP188 I1000 T10781083=
KMSO 171053Z AUTO 00000KT 10SM CLR M11/M13 A3019 RMK AO2 SLP269 I1000 T11111133=
KOLF 171053Z AUTO 10003KT 10SM CLR M12/M14 A2997 RMK AO2 SLP183 I1000 T11221144=
KSDY 171056Z AUTO 19003KT 10SM CLR M11/M12 A3000 RMK AO2 SLP196 T11061122
 FZRANO=
KWYS 171055Z AUTO 00000KT 10SM SCT016 M24/M27 A3004 RMK AO2=